sensor_id;sensor_type;location;lat;lon;timestamp;P1;durP1;ratioP1;P2;durP2;ratioP2
76292;SDS011;67256;51.154;4.164;2023-03-29T00:01:15;5.43;;;3.03;;
76292;SDS011;67256;51.154;4.164;2023-03-29T00:03:41;5.82;;;2.50;;
76292;SDS011;67256;51.154;4.164;2023-03-29T00:06:11;5.65;;;2.95;;
76292;SDS011;67256;51.154;4.164;2023-03-29T00:08:46;6.90;;;2.83;;
76292;SDS011;67256;51.154;4.164;2023-03-29T00:11:15;7.70;;;2.72;;
76292;SDS011;67256;51.154;4.164;2023-03-29T00:13:41;7.28;;;2.67;;
76292;SDS011;67256;51.154;4.164;2023-03-29T00:16:08;6.63;;;3.10;;
76292;SDS011;67256;51.154;4.164;2023-03-29T00:18:34;5.43;;;2.90;;
76292;SDS011;67256;51.154;4.164;2023-03-29T00:21:00;7.63;;;2.80;;
76292;SDS011;67256;51.154;4.164;2023-03-29T00:23:26;7.25;;;3.08;;
76292;SDS011;67256;51.154;4.164;2023-03-29T00:25:52;7.10;;;3.45;;
76292;SDS011;67256;51.154;4.164;2023-03-29T00:28:18;6.72;;;2.80;;
76292;SDS011;67256;51.154;4.164;2023-03-29T00:30:44;5.75;;;2.50;;
76292;SDS011;67256;51.154;4.164;2023-03-29T00:33:10;4.53;;;2.60;;
76292;SDS011;67256;51.154;4.164;2023-03-29T00:35:37;8.55;;;2.95;;
76292;SDS011;67256;51.154;4.164;2023-03-29T00:38:04;6.88;;;2.90;;
76292;SDS011;67256;51.154;4.164;2023-03-29T00:40:30;5.80;;;2.35;;
76292;SDS011;67256;51.154;4.164;2023-03-29T00:42:57;5.32;;;3.13;;
76292;SDS011;67256;51.154;4.164;2023-03-29T00:45:24;10.43;;;3.10;;
76292;SDS011;67256;51.154;4.164;2023-03-29T00:47:59;5.40;;;2.38;;
76292;SDS011;67256;51.154;4.164;2023-03-29T00:50:49;5.20;;;3.28;;
76292;SDS011;67256;51.154;4.164;2023-03-29T00:53:31;7.38;;;2.78;;
76292;SDS011;67256;51.154;4.164;2023-03-29T00:56:06;6.88;;;3.35;;
76292;SDS011;67256;51.154;4.164;2023-03-29T01:01:23;5.80;;;3.00;;
76292;SDS011;67256;51.154;4.164;2023-03-29T01:04:17;7.97;;;3.10;;
76292;SDS011;67256;51.154;4.164;2023-03-29T01:06:51;5.38;;;2.55;;
76292;SDS011;67256;51.154;4.164;2023-03-29T01:09:21;7.32;;;2.92;;
76292;SDS011;67256;51.154;4.164;2023-03-29T01:11:52;6.30;;;2.60;;
76292;SDS011;67256;51.154;4.164;2023-03-29T01:14:39;7.45;;;2.80;;
76292;SDS011;67256;51.154;4.164;2023-03-29T01:19:43;5.75;;;3.63;;
76292;SDS011;67256;51.154;4.164;2023-03-29T01:30:25;6.82;;;2.80;;
76292;SDS011;67256;51.154;4.164;2023-03-29T01:33:15;10.23;;;3.95;;
76292;SDS011;67256;51.154;4.164;2023-03-29T01:35:50;4.95;;;2.83;;
76292;SDS011;67256;51.154;4.164;2023-03-29T01:38:41;7.85;;;3.60;;
76292;SDS011;67256;51.154;4.164;2023-03-29T01:41:16;9.30;;;4.13;;
76292;SDS011;67256;51.154;4.164;2023-03-29T01:44:04;7.78;;;4.00;;
76292;SDS011;67256;51.154;4.164;2023-03-29T01:46:47;8.18;;;3.15;;
76292;SDS011;67256;51.154;4.164;2023-03-29T01:49:28;7.07;;;3.63;;
76292;SDS011;67256;51.154;4.164;2023-03-29T01:52:02;6.13;;;3.03;;
76292;SDS011;67256;51.154;4.164;2023-03-29T01:54:53;7.35;;;3.35;;
76292;SDS011;67256;51.154;4.164;2023-03-29T01:57:28;6.78;;;3.03;;
76292;SDS011;67256;51.154;4.164;2023-03-29T01:59:57;5.43;;;3.15;;
76292;SDS011;67256;51.154;4.164;2023-03-29T02:02:25;8.90;;;2.97;;
76292;SDS011;67256;51.154;4.164;2023-03-29T02:04:52;6.90;;;2.83;;
76292;SDS011;67256;51.154;4.164;2023-03-29T02:07:21;8.95;;;3.00;;
76292;SDS011;67256;51.154;4.164;2023-03-29T02:09:50;7.10;;;3.10;;
76292;SDS011;67256;51.154;4.164;2023-03-29T02:12:18;9.32;;;3.53;;
76292;SDS011;67256;51.154;4.164;2023-03-29T02:14:46;6.22;;;2.80;;
76292;SDS011;67256;51.154;4.164;2023-03-29T02:19:41;7.68;;;2.95;;
76292;SDS011;67256;51.154;4.164;2023-03-29T02:22:10;5.35;;;3.55;;
76292;SDS011;67256;51.154;4.164;2023-03-29T02:24:38;9.40;;;3.45;;
76292;SDS011;67256;51.154;4.164;2023-03-29T02:27:06;9.82;;;3.53;;
76292;SDS011;67256;51.154;4.164;2023-03-29T02:29:33;6.15;;;3.35;;
76292;SDS011;67256;51.154;4.164;2023-03-29T02:32:07;5.70;;;3.20;;
76292;SDS011;67256;51.154;4.164;2023-03-29T02:34:45;6.65;;;3.20;;
76292;SDS011;67256;51.154;4.164;2023-03-29T02:37:19;7.90;;;3.42;;
76292;SDS011;67256;51.154;4.164;2023-03-29T02:39:48;7.00;;;3.28;;
76292;SDS011;67256;51.154;4.164;2023-03-29T02:42:17;7.72;;;3.65;;
76292;SDS011;67256;51.154;4.164;2023-03-29T02:44:47;5.72;;;3.22;;
76292;SDS011;67256;51.154;4.164;2023-03-29T02:47:21;6.93;;;3.28;;
76292;SDS011;67256;51.154;4.164;2023-03-29T02:49:52;5.38;;;3.20;;
76292;SDS011;67256;51.154;4.164;2023-03-29T02:52:21;6.72;;;3.60;;
76292;SDS011;67256;51.154;4.164;2023-03-29T02:54:51;10.50;;;3.50;;
76292;SDS011;67256;51.154;4.164;2023-03-29T02:57:20;9.07;;;3.23;;
76292;SDS011;67256;51.154;4.164;2023-03-29T02:59:54;8.23;;;3.58;;
76292;SDS011;67256;51.154;4.164;2023-03-29T03:02:21;6.55;;;3.10;;
76292;SDS011;67256;51.154;4.164;2023-03-29T03:04:50;6.32;;;3.42;;
76292;SDS011;67256;51.154;4.164;2023-03-29T03:07:17;11.18;;;3.80;;
76292;SDS011;67256;51.154;4.164;2023-03-29T03:09:44;10.10;;;3.33;;
76292;SDS011;67256;51.154;4.164;2023-03-29T03:12:11;6.25;;;3.67;;
76292;SDS011;67256;51.154;4.164;2023-03-29T03:14:38;6.10;;;3.35;;
76292;SDS011;67256;51.154;4.164;2023-03-29T03:17:04;7.35;;;3.60;;
76292;SDS011;67256;51.154;4.164;2023-03-29T03:19:30;6.90;;;3.45;;
76292;SDS011;67256;51.154;4.164;2023-03-29T03:21:57;7.72;;;3.75;;
76292;SDS011;67256;51.154;4.164;2023-03-29T03:24:23;7.28;;;4.18;;
76292;SDS011;67256;51.154;4.164;2023-03-29T03:26:49;6.00;;;3.42;;
76292;SDS011;67256;51.154;4.164;2023-03-29T03:29:15;9.90;;;4.25;;
76292;SDS011;67256;51.154;4.164;2023-03-29T03:31:41;7.60;;;3.40;;
76292;SDS011;67256;51.154;4.164;2023-03-29T03:34:08;5.97;;;3.47;;
76292;SDS011;67256;51.154;4.164;2023-03-29T03:36:35;8.88;;;3.80;;
76292;SDS011;67256;51.154;4.164;2023-03-29T03:39:01;6.28;;;3.42;;
76292;SDS011;67256;51.154;4.164;2023-03-29T03:41:31;8.38;;;3.40;;
76292;SDS011;67256;51.154;4.164;2023-03-29T03:43:58;4.70;;;3.38;;
76292;SDS011;67256;51.154;4.164;2023-03-29T03:46:24;9.70;;;3.90;;
76292;SDS011;67256;51.154;4.164;2023-03-29T03:48:50;11.30;;;4.20;;
76292;SDS011;67256;51.154;4.164;2023-03-29T03:51:16;7.28;;;3.63;;
76292;SDS011;67256;51.154;4.164;2023-03-29T03:53:42;8.98;;;3.67;;
76292;SDS011;67256;51.154;4.164;2023-03-29T03:56:08;11.70;;;4.00;;
76292;SDS011;67256;51.154;4.164;2023-03-29T03:58:35;9.25;;;4.18;;
76292;SDS011;67256;51.154;4.164;2023-03-29T04:01:01;6.75;;;3.78;;
76292;SDS011;67256;51.154;4.164;2023-03-29T04:03:28;8.13;;;3.45;;
76292;SDS011;67256;51.154;4.164;2023-03-29T04:05:58;8.00;;;4.40;;
76292;SDS011;67256;51.154;4.164;2023-03-29T04:08:25;8.00;;;3.90;;
76292;SDS011;67256;51.154;4.164;2023-03-29T04:10:54;5.72;;;3.70;;
76292;SDS011;67256;51.154;4.164;2023-03-29T04:13:21;9.80;;;4.63;;
76292;SDS011;67256;51.154;4.164;2023-03-29T04:15:48;6.43;;;3.70;;
76292;SDS011;67256;51.154;4.164;2023-03-29T04:18:18;8.38;;;4.32;;
76292;SDS011;67256;51.154;4.164;2023-03-29T04:20:45;10.85;;;4.13;;
76292;SDS011;67256;51.154;4.164;2023-03-29T04:23:12;7.95;;;4.57;;
76292;SDS011;67256;51.154;4.164;2023-03-29T04:25:38;7.88;;;4.13;;
76292;SDS011;67256;51.154;4.164;2023-03-29T04:28:04;7.35;;;3.90;;
76292;SDS011;67256;51.154;4.164;2023-03-29T04:30:30;9.70;;;4.20;;
76292;SDS011;67256;51.154;4.164;2023-03-29T04:32:56;12.00;;;4.13;;
76292;SDS011;67256;51.154;4.164;2023-03-29T04:35:22;8.20;;;3.92;;
76292;SDS011;67256;51.154;4.164;2023-03-29T04:37:48;9.65;;;4.43;;
76292;SDS011;67256;51.154;4.164;2023-03-29T04:40:15;8.05;;;3.90;;
76292;SDS011;67256;51.154;4.164;2023-03-29T04:42:43;10.43;;;4.15;;
76292;SDS011;67256;51.154;4.164;2023-03-29T04:45:12;10.38;;;3.95;;
76292;SDS011;67256;51.154;4.164;2023-03-29T04:47:40;7.85;;;4.03;;
76292;SDS011;67256;51.154;4.164;2023-03-29T04:50:07;5.75;;;3.90;;
76292;SDS011;67256;51.154;4.164;2023-03-29T04:52:33;13.88;;;4.78;;
76292;SDS011;67256;51.154;4.164;2023-03-29T04:54:59;11.80;;;4.10;;
76292;SDS011;67256;51.154;4.164;2023-03-29T04:57:26;8.82;;;3.83;;
76292;SDS011;67256;51.154;4.164;2023-03-29T04:59:52;8.95;;;3.83;;
76292;SDS011;67256;51.154;4.164;2023-03-29T05:02:18;9.13;;;3.95;;
76292;SDS011;67256;51.154;4.164;2023-03-29T05:04:44;7.78;;;4.55;;
76292;SDS011;67256;51.154;4.164;2023-03-29T05:07:10;9.52;;;3.50;;
76292;SDS011;67256;51.154;4.164;2023-03-29T05:09:37;7.15;;;4.32;;
76292;SDS011;67256;51.154;4.164;2023-03-29T05:12:03;6.15;;;3.92;;
76292;SDS011;67256;51.154;4.164;2023-03-29T05:14:29;6.35;;;3.28;;
76292;SDS011;67256;51.154;4.164;2023-03-29T05:16:55;7.57;;;3.60;;
76292;SDS011;67256;51.154;4.164;2023-03-29T05:19:21;8.45;;;5.60;;
76292;SDS011;67256;51.154;4.164;2023-03-29T05:21:47;5.70;;;4.25;;
76292;SDS011;67256;51.154;4.164;2023-03-29T05:24:15;11.45;;;5.13;;
76292;SDS011;67256;51.154;4.164;2023-03-29T05:26:41;10.18;;;4.78;;
76292;SDS011;67256;51.154;4.164;2023-03-29T05:29:07;8.48;;;3.90;;
76292;SDS011;67256;51.154;4.164;2023-03-29T05:31:35;14.25;;;4.50;;
76292;SDS011;67256;51.154;4.164;2023-03-29T05:34:03;9.90;;;4.10;;
76292;SDS011;67256;51.154;4.164;2023-03-29T05:36:31;11.02;;;4.60;;
76292;SDS011;67256;51.154;4.164;2023-03-29T05:38:57;7.82;;;3.90;;
76292;SDS011;67256;51.154;4.164;2023-03-29T05:41:23;10.05;;;4.07;;
76292;SDS011;67256;51.154;4.164;2023-03-29T05:43:49;9.85;;;4.63;;
76292;SDS011;67256;51.154;4.164;2023-03-29T05:46:16;8.32;;;4.35;;
76292;SDS011;67256;51.154;4.164;2023-03-29T05:48:42;6.60;;;3.97;;
76292;SDS011;67256;51.154;4.164;2023-03-29T05:51:08;8.82;;;4.60;;
76292;SDS011;67256;51.154;4.164;2023-03-29T05:53:35;6.85;;;4.15;;
76292;SDS011;67256;51.154;4.164;2023-03-29T05:56:02;10.20;;;4.30;;
76292;SDS011;67256;51.154;4.164;2023-03-29T05:58:28;11.93;;;4.38;;
76292;SDS011;67256;51.154;4.164;2023-03-29T06:00:55;6.70;;;4.15;;
76292;SDS011;67256;51.154;4.164;2023-03-29T06:03:22;12.43;;;5.75;;
76292;SDS011;67256;51.154;4.164;2023-03-29T06:06:01;6.90;;;4.20;;
76292;SDS011;67256;51.154;4.164;2023-03-29T06:08:28;11.57;;;4.68;;
76292;SDS011;67256;51.154;4.164;2023-03-29T06:10:58;7.90;;;3.75;;
76292;SDS011;67256;51.154;4.164;2023-03-29T06:13:26;10.88;;;4.45;;
76292;SDS011;67256;51.154;4.164;2023-03-29T06:15:53;11.15;;;4.85;;
76292;SDS011;67256;51.154;4.164;2023-03-29T06:18:19;9.60;;;4.57;;
76292;SDS011;67256;51.154;4.164;2023-03-29T06:20:48;9.70;;;4.85;;
76292;SDS011;67256;51.154;4.164;2023-03-29T06:23:15;12.50;;;4.75;;
76292;SDS011;67256;51.154;4.164;2023-03-29T06:25:43;11.60;;;4.55;;
76292;SDS011;67256;51.154;4.164;2023-03-29T06:28:10;11.18;;;4.97;;
76292;SDS011;67256;51.154;4.164;2023-03-29T06:30:37;9.80;;;4.72;;
76292;SDS011;67256;51.154;4.164;2023-03-29T06:33:03;8.45;;;5.05;;
76292;SDS011;67256;51.154;4.164;2023-03-29T06:35:34;11.02;;;5.68;;
76292;SDS011;67256;51.154;4.164;2023-03-29T06:38:01;11.68;;;5.43;;
76292;SDS011;67256;51.154;4.164;2023-03-29T06:40:29;13.45;;;5.80;;
76292;SDS011;67256;51.154;4.164;2023-03-29T06:42:56;12.05;;;5.00;;
76292;SDS011;67256;51.154;4.164;2023-03-29T06:45:24;7.32;;;4.78;;
76292;SDS011;67256;51.154;4.164;2023-03-29T06:47:51;12.35;;;5.60;;
76292;SDS011;67256;51.154;4.164;2023-03-29T06:50:18;9.85;;;4.63;;
76292;SDS011;67256;51.154;4.164;2023-03-29T06:52:45;8.73;;;4.63;;
76292;SDS011;67256;51.154;4.164;2023-03-29T06:55:12;9.63;;;3.83;;
76292;SDS011;67256;51.154;4.164;2023-03-29T06:57:40;10.73;;;4.10;;
76292;SDS011;67256;51.154;4.164;2023-03-29T07:00:09;7.10;;;4.45;;
76292;SDS011;67256;51.154;4.164;2023-03-29T07:02:46;7.30;;;4.45;;
76292;SDS011;67256;51.154;4.164;2023-03-29T07:05:13;7.22;;;4.40;;
76292;SDS011;67256;51.154;4.164;2023-03-29T07:07:42;8.95;;;4.47;;
76292;SDS011;67256;51.154;4.164;2023-03-29T07:10:21;15.25;;;5.30;;
76292;SDS011;67256;51.154;4.164;2023-03-29T07:12:50;8.57;;;4.97;;
76292;SDS011;67256;51.154;4.164;2023-03-29T07:15:17;12.40;;;4.97;;
76292;SDS011;67256;51.154;4.164;2023-03-29T07:17:45;9.63;;;4.93;;
76292;SDS011;67256;51.154;4.164;2023-03-29T07:20:12;6.25;;;4.15;;
76292;SDS011;67256;51.154;4.164;2023-03-29T07:22:41;10.38;;;4.95;;
76292;SDS011;67256;51.154;4.164;2023-03-29T07:25:08;10.27;;;4.80;;
76292;SDS011;67256;51.154;4.164;2023-03-29T07:27:37;13.30;;;5.22;;
76292;SDS011;67256;51.154;4.164;2023-03-29T07:30:05;11.63;;;5.70;;
76292;SDS011;67256;51.154;4.164;2023-03-29T07:32:35;9.85;;;4.97;;
76292;SDS011;67256;51.154;4.164;2023-03-29T07:35:03;9.68;;;4.80;;
76292;SDS011;67256;51.154;4.164;2023-03-29T07:37:30;9.40;;;5.60;;
76292;SDS011;67256;51.154;4.164;2023-03-29T07:39:58;10.52;;;5.13;;
76292;SDS011;67256;51.154;4.164;2023-03-29T07:42:25;9.90;;;5.68;;
76292;SDS011;67256;51.154;4.164;2023-03-29T07:44:52;10.35;;;5.75;;
76292;SDS011;67256;51.154;4.164;2023-03-29T07:47:18;11.68;;;5.43;;
76292;SDS011;67256;51.154;4.164;2023-03-29T07:49:44;10.40;;;5.68;;
76292;SDS011;67256;51.154;4.164;2023-03-29T07:52:10;15.60;;;5.88;;
76292;SDS011;67256;51.154;4.164;2023-03-29T07:54:36;15.10;;;5.45;;
76292;SDS011;67256;51.154;4.164;2023-03-29T07:57:03;10.38;;;5.07;;
76292;SDS011;67256;51.154;4.164;2023-03-29T07:59:29;11.65;;;5.45;;
76292;SDS011;67256;51.154;4.164;2023-03-29T08:01:56;8.63;;;5.43;;
76292;SDS011;67256;51.154;4.164;2023-03-29T08:04:22;10.10;;;5.40;;
76292;SDS011;67256;51.154;4.164;2023-03-29T08:06:47;8.18;;;5.40;;
76292;SDS011;67256;51.154;4.164;2023-03-29T08:09:14;14.93;;;5.35;;
76292;SDS011;67256;51.154;4.164;2023-03-29T08:11:40;9.00;;;5.75;;
76292;SDS011;67256;51.154;4.164;2023-03-29T08:14:06;15.18;;;6.30;;
76292;SDS011;67256;51.154;4.164;2023-03-29T08:16:33;8.38;;;5.50;;
76292;SDS011;67256;51.154;4.164;2023-03-29T08:18:58;11.75;;;6.30;;
76292;SDS011;67256;51.154;4.164;2023-03-29T08:21:24;15.07;;;6.20;;
76292;SDS011;67256;51.154;4.164;2023-03-29T08:23:50;9.65;;;6.18;;
76292;SDS011;67256;51.154;4.164;2023-03-29T08:26:16;11.38;;;6.30;;
76292;SDS011;67256;51.154;4.164;2023-03-29T08:28:42;14.40;;;6.30;;
76292;SDS011;67256;51.154;4.164;2023-03-29T08:31:09;18.88;;;6.30;;
76292;SDS011;67256;51.154;4.164;2023-03-29T08:33:36;13.18;;;6.18;;
76292;SDS011;67256;51.154;4.164;2023-03-29T08:36:02;9.82;;;5.97;;
76292;SDS011;67256;51.154;4.164;2023-03-29T08:38:29;13.13;;;5.53;;
76292;SDS011;67256;51.154;4.164;2023-03-29T08:40:55;11.18;;;5.70;;
76292;SDS011;67256;51.154;4.164;2023-03-29T08:49:06;8.57;;;5.25;;
76292;SDS011;67256;51.154;4.164;2023-03-29T08:52:11;12.48;;;5.15;;
76292;SDS011;67256;51.154;4.164;2023-03-29T08:54:22;10.27;;;5.22;;
76292;SDS011;67256;51.154;4.164;2023-03-29T08:56:51;12.70;;;5.10;;
76292;SDS011;67256;51.154;4.164;2023-03-29T08:59:28;9.68;;;6.00;;
76292;SDS011;67256;51.154;4.164;2023-03-29T09:01:56;7.50;;;4.75;;
76292;SDS011;67256;51.154;4.164;2023-03-29T09:04:24;16.95;;;5.30;;
76292;SDS011;67256;51.154;4.164;2023-03-29T09:06:53;9.07;;;4.63;;
76292;SDS011;67256;51.154;4.164;2023-03-29T09:09:23;9.82;;;4.78;;
76292;SDS011;67256;51.154;4.164;2023-03-29T09:26:32;11.07;;;5.05;;
76292;SDS011;67256;51.154;4.164;2023-03-29T09:31:46;9.23;;;5.63;;
76292;SDS011;67256;51.154;4.164;2023-03-29T09:34:14;8.95;;;4.53;;
76292;SDS011;67256;51.154;4.164;2023-03-29T09:36:51;8.50;;;4.63;;
76292;SDS011;67256;51.154;4.164;2023-03-29T09:39:37;8.95;;;4.90;;
76292;SDS011;67256;51.154;4.164;2023-03-29T09:42:05;14.25;;;5.00;;
76292;SDS011;67256;51.154;4.164;2023-03-29T09:44:35;8.38;;;5.45;;
76292;SDS011;67256;51.154;4.164;2023-03-29T09:47:12;7.70;;;4.25;;
76292;SDS011;67256;51.154;4.164;2023-03-29T09:49:51;7.53;;;5.10;;
76292;SDS011;67256;51.154;4.164;2023-03-29T09:52:26;9.38;;;5.00;;
76292;SDS011;67256;51.154;4.164;2023-03-29T09:54:53;8.35;;;4.70;;
76292;SDS011;67256;51.154;4.164;2023-03-29T09:57:19;9.23;;;5.05;;
76292;SDS011;67256;51.154;4.164;2023-03-29T09:59:45;13.65;;;5.22;;
76292;SDS011;67256;51.154;4.164;2023-03-29T10:02:13;8.75;;;5.15;;
76292;SDS011;67256;51.154;4.164;2023-03-29T10:04:40;13.35;;;6.03;;
76292;SDS011;67256;51.154;4.164;2023-03-29T10:07:07;10.05;;;5.03;;
76292;SDS011;67256;51.154;4.164;2023-03-29T10:09:42;8.50;;;5.13;;
76292;SDS011;67256;51.154;4.164;2023-03-29T10:12:10;7.93;;;4.75;;
76292;SDS011;67256;51.154;4.164;2023-03-29T10:14:40;10.63;;;4.90;;
76292;SDS011;67256;51.154;4.164;2023-03-29T10:17:12;9.43;;;4.32;;
76292;SDS011;67256;51.154;4.164;2023-03-29T10:19:50;8.82;;;4.72;;
76292;SDS011;67256;51.154;4.164;2023-03-29T10:22:31;7.43;;;4.72;;
76292;SDS011;67256;51.154;4.164;2023-03-29T10:25:01;8.27;;;5.07;;
76292;SDS011;67256;51.154;4.164;2023-03-29T10:27:29;8.45;;;4.40;;
76292;SDS011;67256;51.154;4.164;2023-03-29T10:29:59;11.80;;;4.70;;
76292;SDS011;67256;51.154;4.164;2023-03-29T10:32:35;8.93;;;6.40;;
76292;SDS011;67256;51.154;4.164;2023-03-29T10:37:43;11.88;;;5.30;;
76292;SDS011;67256;51.154;4.164;2023-03-29T10:42:50;8.57;;;5.35;;
76292;SDS011;67256;51.154;4.164;2023-03-29T10:45:26;8.68;;;4.65;;
76292;SDS011;67256;51.154;4.164;2023-03-29T10:47:55;8.32;;;4.75;;
76292;SDS011;67256;51.154;4.164;2023-03-29T10:50:22;8.40;;;4.80;;
76292;SDS011;67256;51.154;4.164;2023-03-29T10:52:49;10.98;;;5.07;;
76292;SDS011;67256;51.154;4.164;2023-03-29T10:55:15;5.97;;;4.20;;
76292;SDS011;67256;51.154;4.164;2023-03-29T10:57:51;10.57;;;4.57;;
76292;SDS011;67256;51.154;4.164;2023-03-29T11:03:16;9.25;;;4.60;;
76292;SDS011;67256;51.154;4.164;2023-03-29T11:05:50;9.20;;;4.57;;
76292;SDS011;67256;51.154;4.164;2023-03-29T11:22:12;9.60;;;4.53;;
76292;SDS011;67256;51.154;4.164;2023-03-29T11:38:47;6.55;;;3.90;;
76292;SDS011;67256;51.154;4.164;2023-03-29T11:41:36;7.22;;;4.10;;
76292;SDS011;67256;51.154;4.164;2023-03-29T11:44:10;6.72;;;3.97;;
76292;SDS011;67256;51.154;4.164;2023-03-29T11:49:53;7.32;;;4.05;;
76292;SDS011;67256;51.154;4.164;2023-03-29T11:52:13;7.18;;;3.70;;
76292;SDS011;67256;51.154;4.164;2023-03-29T11:54:52;6.35;;;3.35;;
76292;SDS011;67256;51.154;4.164;2023-03-29T11:57:39;6.97;;;3.58;;
76292;SDS011;67256;51.154;4.164;2023-03-29T12:03:17;6.20;;;2.88;;
76292;SDS011;67256;51.154;4.164;2023-03-29T12:12:20;7.20;;;3.08;;
76292;SDS011;67256;51.154;4.164;2023-03-29T12:18:17;3.88;;;2.13;;
76292;SDS011;67256;51.154;4.164;2023-03-29T12:20:24;4.10;;;2.58;;
76292;SDS011;67256;51.154;4.164;2023-03-29T12:22:53;6.05;;;2.97;;
76292;SDS011;67256;51.154;4.164;2023-03-29T12:25:22;5.68;;;3.13;;
76292;SDS011;67256;51.154;4.164;2023-03-29T12:28:00;6.20;;;2.35;;
76292;SDS011;67256;51.154;4.164;2023-03-29T12:38:44;4.85;;;2.05;;
76292;SDS011;67256;51.154;4.164;2023-03-29T12:41:18;3.38;;;2.13;;
76292;SDS011;67256;51.154;4.164;2023-03-29T12:43:47;3.67;;;1.92;;
76292;SDS011;67256;51.154;4.164;2023-03-29T12:46:14;6.13;;;2.80;;
76292;SDS011;67256;51.154;4.164;2023-03-29T12:48:45;5.03;;;2.15;;
76292;SDS011;67256;51.154;4.164;2023-03-29T12:51:14;7.22;;;2.45;;
76292;SDS011;67256;51.154;4.164;2023-03-29T12:53:50;3.95;;;2.08;;
76292;SDS011;67256;51.154;4.164;2023-03-29T12:56:19;4.93;;;1.95;;
76292;SDS011;67256;51.154;4.164;2023-03-29T12:58:52;6.60;;;2.80;;
76292;SDS011;67256;51.154;4.164;2023-03-29T13:03:54;3.72;;;2.30;;
76292;SDS011;67256;51.154;4.164;2023-03-29T13:09:34;7.05;;;2.65;;
76292;SDS011;67256;51.154;4.164;2023-03-29T13:14:55;5.97;;;2.88;;
76292;SDS011;67256;51.154;4.164;2023-03-29T13:20:19;3.85;;;2.38;;
76292;SDS011;67256;51.154;4.164;2023-03-29T13:23:05;4.18;;;2.42;;
76292;SDS011;67256;51.154;4.164;2023-03-29T13:31:10;4.53;;;2.15;;
76292;SDS011;67256;51.154;4.164;2023-03-29T13:36:56;4.00;;;2.33;;
76292;SDS011;67256;51.154;4.164;2023-03-29T13:39:40;3.85;;;2.13;;
76292;SDS011;67256;51.154;4.164;2023-03-29T13:44:46;6.93;;;2.58;;
76292;SDS011;67256;51.154;4.164;2023-03-29T13:49:51;5.78;;;2.72;;
76292;SDS011;67256;51.154;4.164;2023-03-29T13:57:58;5.32;;;2.30;;
76292;SDS011;67256;51.154;4.164;2023-03-29T14:00:31;5.57;;;2.47;;
76292;SDS011;67256;51.154;4.164;2023-03-29T14:03:04;4.45;;;2.28;;
76292;SDS011;67256;51.154;4.164;2023-03-29T14:05:36;2.85;;;1.98;;
76292;SDS011;67256;51.154;4.164;2023-03-29T14:08:22;3.55;;;1.90;;
76292;SDS011;67256;51.154;4.164;2023-03-29T14:11:02;4.95;;;2.60;;
76292;SDS011;67256;51.154;4.164;2023-03-29T14:16:00;4.25;;;2.33;;
76292;SDS011;67256;51.154;4.164;2023-03-29T14:18:32;3.70;;;2.30;;
76292;SDS011;67256;51.154;4.164;2023-03-29T14:21:01;4.70;;;2.22;;
76292;SDS011;67256;51.154;4.164;2023-03-29T14:23:28;4.53;;;2.47;;
76292;SDS011;67256;51.154;4.164;2023-03-29T14:26:11;4.03;;;2.28;;
76292;SDS011;67256;51.154;4.164;2023-03-29T14:28:43;4.63;;;2.55;;
76292;SDS011;67256;51.154;4.164;2023-03-29T14:31:23;3.70;;;2.10;;
76292;SDS011;67256;51.154;4.164;2023-03-29T14:33:56;4.93;;;2.05;;
76292;SDS011;67256;51.154;4.164;2023-03-29T14:36:24;4.80;;;2.63;;
76292;SDS011;67256;51.154;4.164;2023-03-29T14:38:55;6.30;;;2.63;;
76292;SDS011;67256;51.154;4.164;2023-03-29T14:41:40;5.40;;;2.30;;
76292;SDS011;67256;51.154;4.164;2023-03-29T14:44:17;3.35;;;2.35;;
76292;SDS011;67256;51.154;4.164;2023-03-29T14:46:46;7.10;;;2.83;;
76292;SDS011;67256;51.154;4.164;2023-03-29T14:49:16;8.75;;;3.88;;
76292;SDS011;67256;51.154;4.164;2023-03-29T14:51:43;4.60;;;3.05;;
76292;SDS011;67256;51.154;4.164;2023-03-29T14:54:26;6.30;;;3.60;;
76292;SDS011;67256;51.154;4.164;2023-03-29T14:56:54;10.23;;;4.47;;
76292;SDS011;67256;51.154;4.164;2023-03-29T15:04:55;5.43;;;3.50;;
76292;SDS011;67256;51.154;4.164;2023-03-29T15:07:29;6.63;;;3.30;;
76292;SDS011;67256;51.154;4.164;2023-03-29T15:09:57;4.50;;;2.70;;
76292;SDS011;67256;51.154;4.164;2023-03-29T15:12:24;8.38;;;3.25;;
76292;SDS011;67256;51.154;4.164;2023-03-29T15:14:54;6.88;;;3.22;;
76292;SDS011;67256;51.154;4.164;2023-03-29T15:17:40;13.88;;;3.58;;
76292;SDS011;67256;51.154;4.164;2023-03-29T15:20:21;6.90;;;3.30;;
76292;SDS011;67256;51.154;4.164;2023-03-29T15:23:00;5.32;;;3.33;;
76292;SDS011;67256;51.154;4.164;2023-03-29T15:25:32;6.30;;;3.40;;
76292;SDS011;67256;51.154;4.164;2023-03-29T15:28:03;9.10;;;3.38;;
76292;SDS011;67256;51.154;4.164;2023-03-29T15:30:38;7.00;;;3.38;;
76292;SDS011;67256;51.154;4.164;2023-03-29T15:33:15;10.52;;;3.33;;
76292;SDS011;67256;51.154;4.164;2023-03-29T15:35:47;6.28;;;3.45;;
76292;SDS011;67256;51.154;4.164;2023-03-29T15:38:15;8.73;;;3.50;;
76292;SDS011;67256;51.154;4.164;2023-03-29T15:40:41;7.05;;;3.38;;
76292;SDS011;67256;51.154;4.164;2023-03-29T15:43:07;5.28;;;3.30;;
76292;SDS011;67256;51.154;4.164;2023-03-29T15:45:33;6.32;;;3.40;;
76292;SDS011;67256;51.154;4.164;2023-03-29T15:48:00;7.80;;;3.80;;
76292;SDS011;67256;51.154;4.164;2023-03-29T15:50:29;6.88;;;3.17;;
76292;SDS011;67256;51.154;4.164;2023-03-29T15:52:56;7.28;;;2.75;;
76292;SDS011;67256;51.154;4.164;2023-03-29T15:55:26;6.60;;;4.18;;
76292;SDS011;67256;51.154;4.164;2023-03-29T15:57:55;8.13;;;2.97;;
76292;SDS011;67256;51.154;4.164;2023-03-29T16:00:22;6.38;;;3.13;;
76292;SDS011;67256;51.154;4.164;2023-03-29T16:02:49;5.63;;;2.83;;
76292;SDS011;67256;51.154;4.164;2023-03-29T16:05:16;8.85;;;3.28;;
76292;SDS011;67256;51.154;4.164;2023-03-29T16:07:42;6.05;;;2.95;;
76292;SDS011;67256;51.154;4.164;2023-03-29T16:10:08;12.93;;;3.80;;
76292;SDS011;67256;51.154;4.164;2023-03-29T16:12:34;9.95;;;3.20;;
76292;SDS011;67256;51.154;4.164;2023-03-29T16:15:35;8.65;;;3.75;;
76292;SDS011;67256;51.154;4.164;2023-03-29T16:17:55;9.30;;;4.25;;
76292;SDS011;67256;51.154;4.164;2023-03-29T16:20:21;9.90;;;4.05;;
76292;SDS011;67256;51.154;4.164;2023-03-29T16:22:47;5.72;;;3.00;;
76292;SDS011;67256;51.154;4.164;2023-03-29T16:25:16;6.78;;;3.50;;
76292;SDS011;67256;51.154;4.164;2023-03-29T16:27:47;6.38;;;3.53;;
76292;SDS011;67256;51.154;4.164;2023-03-29T16:30:13;8.98;;;3.58;;
76292;SDS011;67256;51.154;4.164;2023-03-29T16:32:40;9.50;;;3.88;;
76292;SDS011;67256;51.154;4.164;2023-03-29T16:35:28;13.43;;;3.88;;
76292;SDS011;67256;51.154;4.164;2023-03-29T16:37:56;12.45;;;4.25;;
76292;SDS011;67256;51.154;4.164;2023-03-29T16:40:22;8.57;;;4.00;;
76292;SDS011;67256;51.154;4.164;2023-03-29T16:42:49;9.48;;;4.20;;
76292;SDS011;67256;51.154;4.164;2023-03-29T16:45:16;7.15;;;3.58;;
76292;SDS011;67256;51.154;4.164;2023-03-29T16:47:42;6.22;;;4.10;;
76292;SDS011;67256;51.154;4.164;2023-03-29T16:50:12;7.30;;;4.22;;
76292;SDS011;67256;51.154;4.164;2023-03-29T16:52:40;7.72;;;3.30;;
76292;SDS011;67256;51.154;4.164;2023-03-29T16:55:07;7.80;;;4.47;;
76292;SDS011;67256;51.154;4.164;2023-03-29T16:57:36;8.38;;;4.10;;
76292;SDS011;67256;51.154;4.164;2023-03-29T17:00:09;12.93;;;4.22;;
76292;SDS011;67256;51.154;4.164;2023-03-29T17:02:36;8.65;;;4.15;;
76292;SDS011;67256;51.154;4.164;2023-03-29T17:05:02;11.13;;;4.18;;
76292;SDS011;67256;51.154;4.164;2023-03-29T17:07:28;6.68;;;4.13;;
76292;SDS011;67256;51.154;4.164;2023-03-29T17:09:54;10.85;;;3.88;;
76292;SDS011;67256;51.154;4.164;2023-03-29T17:12:20;8.07;;;4.15;;
76292;SDS011;67256;51.154;4.164;2023-03-29T17:14:47;10.20;;;4.68;;
76292;SDS011;67256;51.154;4.164;2023-03-29T17:17:13;10.23;;;4.95;;
76292;SDS011;67256;51.154;4.164;2023-03-29T17:19:39;8.73;;;4.63;;